createdAt,value
2023-05-09T00:00:27.449Z,16.73
2023-05-09T00:01:06.952Z,17.75
2023-05-09T00:01:39.985Z,16.77
2023-05-09T00:02:12.821Z,17.48
2023-05-09T00:02:45.908Z,17.67
2023-05-09T00:03:17.861Z,17.05
2023-05-09T00:03:51.306Z,17.70
2023-05-09T00:04:24.193Z,17.90
2023-05-09T00:04:56.840Z,17.30
2023-05-09T00:05:29.681Z,18.15
2023-05-09T00:06:02.396Z,17.17
2023-05-09T00:06:34.511Z,18.35
2023-05-09T00:07:07.382Z,17.23
2023-05-09T00:07:39.194Z,18.33
2023-05-09T00:08:11.137Z,18.52
2023-05-09T00:08:45.384Z,16.30
2023-05-09T00:09:17.264Z,16.63
2023-05-09T00:09:49.109Z,17.55
2023-05-09T00:10:22.059Z,17.35
2023-05-09T00:10:54.007Z,18.30
2023-05-09T00:11:25.966Z,16.58
2023-05-09T00:11:57.765Z,17.88
2023-05-09T00:12:30.914Z,17.90
2023-05-09T00:13:02.940Z,18.67
2023-05-09T00:13:34.852Z,18.65
2023-05-09T00:14:06.699Z,18.95
2023-05-09T00:14:40.557Z,18.42
2023-05-09T00:15:13.001Z,19.90
2023-05-09T00:15:45.013Z,18.38
2023-05-09T00:16:20.624Z,17.45
2023-05-09T00:16:53.591Z,19.40
2023-05-09T00:17:26.759Z,22.98
2023-05-09T00:17:59.713Z,23.92
2023-05-09T00:18:33.945Z,23.13
2023-05-09T00:19:06.931Z,27.25
2023-05-09T00:19:40.110Z,26.90
2023-05-09T00:20:12.736Z,21.85
2023-05-09T00:20:44.508Z,21.50
2023-05-09T00:21:17.247Z,20.23
2023-05-09T00:21:49.023Z,19.23
2023-05-09T00:22:21.444Z,18.25
2023-05-09T00:22:55.218Z,16.83
2023-05-09T00:23:27.028Z,17.30
2023-05-09T00:24:00.974Z,18.48
2023-05-09T00:24:33.763Z,19.13
2023-05-09T00:25:06.950Z,17.67
2023-05-09T00:25:38.777Z,17.15
2023-05-09T00:26:11.695Z,19.80
2023-05-09T00:26:43.525Z,17.65
2023-05-09T00:27:16.196Z,18.42
2023-05-09T00:27:48.961Z,15.50
2023-05-09T00:28:20.752Z,17.60
2023-05-09T00:28:52.746Z,17.10
2023-05-09T00:29:24.544Z,16.38
2023-05-09T00:29:57.410Z,16.35
2023-05-09T00:30:29.192Z,16.67
2023-05-09T00:31:00.977Z,17.70
2023-05-09T00:31:33.776Z,17.40
2023-05-09T00:32:06.169Z,16.48
2023-05-09T00:32:40.140Z,16.60
2023-05-09T00:33:13.101Z,16.58
2023-05-09T00:33:44.930Z,16.85
2023-05-09T00:34:16.709Z,17.23
2023-05-09T00:34:48.494Z,17.65
2023-05-09T00:35:21.233Z,17.35
2023-05-09T00:35:53.127Z,16.77
2023-05-09T00:36:24.963Z,18.05
2023-05-09T00:36:57.732Z,19.13
2023-05-09T00:37:31.208Z,17.13
2023-05-09T00:38:03.032Z,18.13
2023-05-09T00:38:35.865Z,18.35
2023-05-09T00:39:09.596Z,16.83
2023-05-09T00:39:41.370Z,17.15
2023-05-09T00:40:14.623Z,16.58
2023-05-09T00:40:46.575Z,18.38
2023-05-09T00:41:18.393Z,18.52
2023-05-09T00:41:51.904Z,18.55
2023-05-09T00:42:23.704Z,16.08
2023-05-09T00:42:58.125Z,17.17
2023-05-09T00:43:31.120Z,17.85
2023-05-09T00:44:02.964Z,17.95
2023-05-09T00:44:34.741Z,16.48
2023-05-09T00:45:09.003Z,17.73
2023-05-09T00:45:41.356Z,17.00
2023-05-09T00:46:13.216Z,18.33
2023-05-09T00:46:45.373Z,16.83
2023-05-09T00:47:18.272Z,16.77
2023-05-09T00:47:50.338Z,17.40
2023-05-09T00:48:22.550Z,16.95
2023-05-09T00:48:56.016Z,16.10
2023-05-09T00:49:28.833Z,16.00
2023-05-09T00:50:01.339Z,16.52
2023-05-09T00:50:33.171Z,17.33
2023-05-09T00:51:06.059Z,17.13
2023-05-09T00:51:39.185Z,16.02
2023-05-09T00:52:11.045Z,18.05
2023-05-09T00:52:44.046Z,18.15
2023-05-09T00:53:15.836Z,17.40
2023-05-09T00:53:47.840Z,17.70
2023-05-09T00:54:21.982Z,24.30
2023-05-09T00:54:54.597Z,16.42
2023-05-09T00:55:27.150Z,17.50
2023-05-09T00:56:01.427Z,18.35
2023-05-09T00:56:33.282Z,16.65
2023-05-09T00:57:05.241Z,17.17
2023-05-09T00:57:37.294Z,18.10
2023-05-09T00:58:10.079Z,16.60
2023-05-09T00:58:41.976Z,17.65
2023-05-09T00:59:15.291Z,16.73
2023-05-09T00:59:49.787Z,18.00
2023-05-09T01:00:22.029Z,17.95
2023-05-09T01:00:53.843Z,18.48
2023-05-09T01:01:26.731Z,16.00
2023-05-09T01:01:58.652Z,16.95
2023-05-09T01:02:31.424Z,17.20
2023-05-09T01:03:04.871Z,18.10
2023-05-09T01:03:38.654Z,18.60
2023-05-09T01:04:11.649Z,16.88
2023-05-09T01:04:45.567Z,16.38
2023-05-09T01:05:17.678Z,17.08
2023-05-09T01:05:56.622Z,17.15
2023-05-09T01:06:39.712Z,15.90
2023-05-09T01:07:19.038Z,17.17
2023-05-09T01:07:56.857Z,16.50
2023-05-09T01:08:42.134Z,16.40
2023-05-09T01:09:24.265Z,17.00
2023-05-09T01:10:04.739Z,17.25
2023-05-09T01:10:44.528Z,16.52
2023-05-09T01:11:27.106Z,16.25
2023-05-09T01:12:07.076Z,17.30
2023-05-09T01:12:46.228Z,18.98
2023-05-09T01:13:24.979Z,16.40
2023-05-09T01:14:06.585Z,18.67
2023-05-09T01:14:45.646Z,16.70
2023-05-09T01:15:24.018Z,16.90
2023-05-09T01:16:05.988Z,17.17
2023-05-09T01:16:42.671Z,17.80
2023-05-09T01:17:25.257Z,16.90
2023-05-09T01:18:01.119Z,16.25
2023-05-09T01:18:41.260Z,17.38
2023-05-09T01:19:33.247Z,16.40
2023-05-09T01:20:13.913Z,17.50
2023-05-09T01:20:51.807Z,17.48
2023-05-09T01:21:29.181Z,16.00
2023-05-09T01:22:05.190Z,17.45
2023-05-09T01:22:39.601Z,18.00
2023-05-09T01:23:48.711Z,16.65
2023-05-09T01:24:47.857Z,16.27
2023-05-09T01:25:42.839Z,15.13
2023-05-09T01:26:19.457Z,17.15
2023-05-09T01:27:18.276Z,15.85
2023-05-09T01:27:58.020Z,16.92
2023-05-09T01:28:44.023Z,18.85
2023-05-09T01:29:36.860Z,16.42
2023-05-09T01:30:11.874Z,16.80
2023-05-09T01:30:47.592Z,17.67
2023-05-09T01:31:20.525Z,17.70
2023-05-09T01:31:54.621Z,16.73
2023-05-09T01:32:29.542Z,18.23
2023-05-09T01:33:06.650Z,17.92
2023-05-09T01:33:40.819Z,18.10
2023-05-09T01:34:18.367Z,17.25
2023-05-09T01:34:52.275Z,16.35
2023-05-09T01:35:26.658Z,16.40
2023-05-09T01:36:04.208Z,16.58
2023-05-09T01:36:39.233Z,16.23
2023-05-09T01:37:14.537Z,17.67
2023-05-09T01:37:50.960Z,16.52
2023-05-09T01:38:25.300Z,16.35
2023-05-09T01:38:58.123Z,16.90
2023-05-09T01:39:33.709Z,16.20
2023-05-09T01:40:10.336Z,17.13
2023-05-09T01:40:43.106Z,17.38
2023-05-09T01:41:17.593Z,16.70
2023-05-09T01:41:50.495Z,17.23
2023-05-09T01:42:25.059Z,17.15
2023-05-09T01:43:00.283Z,17.60
2023-05-09T01:43:34.559Z,16.45
2023-05-09T01:44:11.068Z,17.85
2023-05-09T01:44:47.775Z,17.48
2023-05-09T01:45:20.512Z,16.00
2023-05-09T01:45:53.436Z,16.05
2023-05-09T01:46:28.245Z,20.40
2023-05-09T01:47:01.528Z,18.00
2023-05-09T01:47:34.038Z,16.95
2023-05-09T01:48:09.381Z,17.48
2023-05-09T01:48:42.542Z,16.77
2023-05-09T01:49:15.013Z,17.08
2023-05-09T01:49:49.150Z,17.08
2023-05-09T01:50:22.600Z,16.80
2023-05-09T01:50:55.711Z,16.33
2023-05-09T01:51:31.531Z,15.60
2023-05-09T01:52:08.163Z,16.45
2023-05-09T01:52:42.647Z,15.85
2023-05-09T01:53:17.148Z,17.35
2023-05-09T01:53:51.335Z,16.80
2023-05-09T01:54:26.084Z,16.55
2023-05-09T01:55:00.251Z,16.08
2023-05-09T01:55:34.583Z,15.95
2023-05-09T01:56:09.372Z,16.27
2023-05-09T01:56:44.104Z,17.40
2023-05-09T01:57:18.679Z,16.80
2023-05-09T01:57:50.814Z,15.90
2023-05-09T01:58:24.550Z,15.98
2023-05-09T01:58:57.744Z,14.68
2023-05-09T01:59:31.805Z,15.55
2023-05-09T02:00:08.941Z,17.05
2023-05-09T02:00:41.225Z,17.08
2023-05-09T02:01:14.690Z,16.83
2023-05-09T02:01:48.251Z,17.25
2023-05-09T02:02:21.039Z,15.07
2023-05-09T02:02:54.240Z,16.13
2023-05-09T02:03:27.626Z,17.20
2023-05-09T02:04:00.269Z,16.10
2023-05-09T02:04:32.928Z,17.10
2023-05-09T02:05:06.992Z,17.27
2023-05-09T02:05:39.854Z,16.48
2023-05-09T02:06:12.599Z,15.25
2023-05-09T02:06:46.837Z,16.95
2023-05-09T02:07:19.255Z,16.17
2023-05-09T02:07:51.692Z,17.17
2023-05-09T02:08:24.683Z,18.55
2023-05-09T02:08:57.555Z,16.27
2023-05-09T02:09:29.452Z,18.23
2023-05-09T02:10:03.128Z,16.02
2023-05-09T02:10:36.688Z,16.73
2023-05-09T02:11:08.494Z,18.90
2023-05-09T02:11:40.822Z,16.63
2023-05-09T02:12:14.388Z,18.65
2023-05-09T02:12:46.203Z,17.60
2023-05-09T02:13:18.193Z,17.45
2023-05-09T02:13:51.170Z,16.15
2023-05-09T02:14:23.155Z,16.73
2023-05-09T02:14:55.008Z,16.98
2023-05-09T02:15:31.249Z,16.30
2023-05-09T02:16:03.339Z,16.65
2023-05-09T02:16:35.499Z,15.45
2023-05-09T02:17:09.464Z,16.27
2023-05-09T02:17:42.552Z,17.48
2023-05-09T02:18:14.457Z,16.30
2023-05-09T02:18:47.013Z,17.33
2023-05-09T02:19:19.754Z,16.85
2023-05-09T02:19:51.573Z,16.90
2023-05-09T02:20:23.433Z,16.27
2023-05-09T02:20:56.744Z,16.98
2023-05-09T02:21:29.248Z,17.17
2023-05-09T02:22:01.902Z,16.90
2023-05-09T02:22:34.692Z,17.65
2023-05-09T02:23:06.581Z,15.85
2023-05-09T02:23:38.597Z,17.40
2023-05-09T02:24:11.601Z,17.63
2023-05-09T02:24:44.047Z,17.33
2023-05-09T02:25:17.115Z,15.60
2023-05-09T02:25:50.577Z,17.13
2023-05-09T02:26:22.608Z,16.90
2023-05-09T02:26:55.230Z,17.88
2023-05-09T02:27:28.560Z,16.17
2023-05-09T02:28:01.268Z,16.15
2023-05-09T02:28:33.823Z,17.00
2023-05-09T02:29:08.561Z,15.98
2023-05-09T02:29:44.270Z,16.17
2023-05-09T02:30:20.977Z,18.55
2023-05-09T02:30:58.505Z,16.70
2023-05-09T02:31:31.618Z,17.23
2023-05-09T02:32:05.401Z,17.55
2023-05-09T02:32:40.918Z,15.57
2023-05-09T02:33:13.770Z,16.42
2023-05-09T02:33:47.735Z,18.73
2023-05-09T02:34:21.475Z,17.23
2023-05-09T02:34:55.437Z,16.63
2023-05-09T02:35:28.836Z,16.55
2023-05-09T02:36:02.257Z,14.55
2023-05-09T02:36:34.670Z,16.63
2023-05-09T02:37:07.386Z,16.73
2023-05-09T02:37:40.438Z,16.02
2023-05-09T02:38:12.887Z,17.42
2023-05-09T02:38:45.413Z,16.58
2023-05-09T02:39:18.426Z,16.05
2023-05-09T02:39:50.306Z,16.00
2023-05-09T02:40:23.099Z,16.77
2023-05-09T02:40:55.918Z,16.52
2023-05-09T02:41:28.349Z,16.40
2023-05-09T02:42:06.859Z,16.60
2023-05-09T02:42:39.624Z,15.85
2023-05-09T02:43:11.536Z,16.85
2023-05-09T02:43:43.745Z,17.63
2023-05-09T02:44:15.692Z,16.30
2023-05-09T02:44:48.577Z,15.32
2023-05-09T02:45:20.476Z,16.80
2023-05-09T02:45:54.812Z,18.27
2023-05-09T02:46:26.749Z,17.48
2023-05-09T02:46:58.733Z,16.80
2023-05-09T02:47:31.824Z,15.57
2023-05-09T02:48:06.241Z,17.27
2023-05-09T02:48:40.178Z,17.08
2023-05-09T02:49:22.835Z,15.27
2023-05-09T02:50:03.864Z,15.70
2023-05-09T02:50:38.053Z,15.68
2023-05-09T02:51:09.868Z,16.08
2023-05-09T02:51:41.649Z,17.23
2023-05-09T02:52:14.601Z,16.60
2023-05-09T02:52:46.604Z,17.13
2023-05-09T02:53:18.495Z,17.10
2023-05-09T02:53:51.257Z,16.45
2023-05-09T02:54:23.061Z,17.05
2023-05-09T02:54:54.863Z,16.83
2023-05-09T02:55:28.355Z,17.35
2023-05-09T02:56:00.158Z,16.42
2023-05-09T02:56:31.981Z,16.95
2023-05-09T02:57:05.034Z,17.27
2023-05-09T02:57:36.873Z,15.48
2023-05-09T02:58:14.088Z,16.77
2023-05-09T02:58:51.102Z,16.98
2023-05-09T02:59:22.947Z,17.02
2023-05-09T02:59:54.728Z,16.75
2023-05-09T03:00:27.486Z,16.67
2023-05-09T03:01:00.777Z,16.65
2023-05-09T03:01:32.724Z,16.15
2023-05-09T03:02:06.390Z,16.33
2023-05-09T03:02:38.966Z,17.77
2023-05-09T03:03:11.237Z,14.98
2023-05-09T03:03:43.226Z,16.15
2023-05-09T03:04:16.482Z,16.70
2023-05-09T03:04:48.295Z,16.15
2023-05-09T03:05:20.494Z,16.98
2023-05-09T03:05:53.270Z,16.35
2023-05-09T03:06:25.060Z,17.48
2023-05-09T03:06:56.855Z,16.08
2023-05-09T03:07:29.605Z,15.60
2023-05-09T03:08:01.413Z,17.60
2023-05-09T03:08:33.228Z,17.77
2023-05-09T03:09:06.981Z,17.45
2023-05-09T03:09:40.524Z,17.17
2023-05-09T03:10:13.153Z,17.67
2023-05-09T03:10:45.985Z,17.92
2023-05-09T03:11:17.914Z,17.00
2023-05-09T03:11:50.283Z,15.98
2023-05-09T03:12:23.077Z,17.40
2023-05-09T03:12:54.938Z,16.90
2023-05-09T03:13:26.797Z,17.70
2023-05-09T03:13:59.641Z,16.75
2023-05-09T03:14:31.600Z,18.23
2023-05-09T03:15:04.162Z,16.30
2023-05-09T03:15:36.971Z,16.63
2023-05-09T03:16:13.810Z,17.42
2023-05-09T03:16:45.640Z,17.40
2023-05-09T03:17:21.191Z,15.82
2023-05-09T03:17:53.115Z,16.60
2023-05-09T03:18:25.242Z,16.95
2023-05-09T03:18:58.098Z,16.60
2023-05-09T03:19:29.886Z,16.17
2023-05-09T03:20:04.058Z,16.65
2023-05-09T03:20:37.213Z,17.05
2023-05-09T03:21:08.999Z,16.48
2023-05-09T03:21:41.749Z,17.80
2023-05-09T03:22:14.645Z,16.52
2023-05-09T03:22:48.232Z,16.88
2023-05-09T03:23:20.282Z,17.63
2023-05-09T03:23:52.167Z,15.70
2023-05-09T03:24:26.405Z,17.42
2023-05-09T03:24:58.172Z,16.77
2023-05-09T03:25:30.004Z,17.05
2023-05-09T03:26:02.785Z,15.77
2023-05-09T03:26:35.578Z,17.40
2023-05-09T03:27:07.350Z,17.67
2023-05-09T03:27:40.303Z,17.75
2023-05-09T03:28:12.118Z,17.27
2023-05-09T03:28:44.098Z,16.10
2023-05-09T03:29:16.872Z,16.77
2023-05-09T03:29:48.657Z,16.80
2023-05-09T03:30:20.438Z,18.45
2023-05-09T03:30:53.180Z,17.73
2023-05-09T03:31:26.783Z,17.50
2023-05-09T03:31:58.762Z,16.45
2023-05-09T03:32:31.591Z,17.88
2023-05-09T03:33:04.848Z,19.00
2023-05-09T03:33:36.850Z,15.55
2023-05-09T03:34:14.736Z,18.33
2023-05-09T03:34:46.537Z,17.35
2023-05-09T03:35:18.532Z,17.15
2023-05-09T03:35:51.503Z,16.42
2023-05-09T03:36:24.328Z,15.80
2023-05-09T03:36:56.212Z,16.30
2023-05-09T03:37:28.012Z,18.55
2023-05-09T03:38:00.782Z,16.73
2023-05-09T03:38:32.542Z,18.38
2023-05-09T03:39:04.338Z,15.90
2023-05-09T03:39:37.095Z,17.17
2023-05-09T03:40:09.718Z,18.52
2023-05-09T03:40:41.504Z,18.73
2023-05-09T03:41:16.242Z,18.15
2023-05-09T03:41:49.070Z,16.90
2023-05-09T03:42:22.169Z,16.33
2023-05-09T03:42:55.013Z,17.15
2023-05-09T03:43:26.880Z,16.80
2023-05-09T03:43:58.687Z,17.83
2023-05-09T03:44:31.664Z,16.35
2023-05-09T03:45:03.731Z,15.75
2023-05-09T03:45:36.030Z,17.80
2023-05-09T03:46:09.222Z,16.60
2023-05-09T03:46:42.473Z,16.35
2023-05-09T03:47:14.340Z,18.02
2023-05-09T03:47:47.204Z,17.27
2023-05-09T03:48:19.111Z,17.17
2023-05-09T03:48:50.888Z,17.38
2023-05-09T03:49:23.648Z,19.02
2023-05-09T03:49:55.626Z,14.95
2023-05-09T03:50:27.518Z,16.58
2023-05-09T03:51:00.339Z,18.30
2023-05-09T03:51:32.392Z,18.80
2023-05-09T03:52:04.364Z,17.90
2023-05-09T03:52:37.176Z,16.60
2023-05-09T03:53:10.210Z,16.77
2023-05-09T03:53:42.047Z,18.23
2023-05-09T03:54:13.828Z,16.90
2023-05-09T03:54:46.627Z,16.77
2023-05-09T03:55:18.526Z,15.70
2023-05-09T03:55:50.326Z,17.55
2023-05-09T03:56:23.323Z,16.60
2023-05-09T03:56:55.186Z,17.00
2023-05-09T03:57:27.044Z,18.30
2023-05-09T03:57:58.924Z,16.85
2023-05-09T03:58:31.813Z,18.20
2023-05-09T03:59:03.731Z,16.75
2023-05-09T03:59:35.716Z,17.55
2023-05-09T04:00:10.341Z,16.33
2023-05-09T04:00:42.414Z,17.60
2023-05-09T04:01:14.516Z,17.60
2023-05-09T04:01:48.876Z,18.30
2023-05-09T04:02:21.089Z,17.20
2023-05-09T04:02:53.693Z,16.92
2023-05-09T04:03:26.907Z,15.65
2023-05-09T04:03:59.067Z,17.80
2023-05-09T04:04:30.983Z,17.70
2023-05-09T04:05:04.218Z,17.38
2023-05-09T04:05:36.116Z,17.80
2023-05-09T04:06:08.195Z,18.52
2023-05-09T04:06:41.087Z,16.67
2023-05-09T04:07:12.994Z,16.63
2023-05-09T04:07:44.892Z,16.60
2023-05-09T04:08:17.688Z,15.40
2023-05-09T04:08:49.537Z,17.35
2023-05-09T04:09:21.446Z,17.55
2023-05-09T04:09:55.490Z,17.65
2023-05-09T04:10:27.442Z,15.95
2023-05-09T04:10:59.347Z,15.95
2023-05-09T04:11:32.106Z,17.23
2023-05-09T04:12:04.128Z,16.70
2023-05-09T04:12:35.917Z,16.58
2023-05-09T04:13:08.047Z,17.10
2023-05-09T04:13:40.922Z,16.38
2023-05-09T04:14:12.698Z,16.67
2023-05-09T04:14:46.164Z,17.63
2023-05-09T04:15:20.247Z,18.02
2023-05-09T04:15:52.079Z,16.10
2023-05-09T04:16:23.952Z,17.08
2023-05-09T04:16:58.196Z,17.05
2023-05-09T04:17:30.068Z,18.10
2023-05-09T04:18:02.009Z,18.05
2023-05-09T04:18:34.907Z,17.38
2023-05-09T04:19:07.128Z,18.23
2023-05-09T04:19:38.993Z,15.80
2023-05-09T04:20:13.039Z,17.77
2023-05-09T04:20:44.829Z,17.90
2023-05-09T04:21:16.649Z,17.48
2023-05-09T04:21:49.415Z,16.73
2023-05-09T04:22:21.285Z,17.33
2023-05-09T04:22:53.088Z,17.58
2023-05-09T04:23:25.867Z,19.27
2023-05-09T04:23:58.328Z,19.50
2023-05-09T04:24:30.323Z,17.23
2023-05-09T04:25:03.423Z,16.42
2023-05-09T04:25:35.450Z,17.25
2023-05-09T04:26:07.347Z,18.38
2023-05-09T04:26:40.283Z,18.27
2023-05-09T04:27:12.132Z,17.38
2023-05-09T04:27:43.916Z,18.55
2023-05-09T04:28:16.690Z,19.02
2023-05-09T04:28:48.594Z,21.45
2023-05-09T04:29:21.381Z,22.20
2023-05-09T04:29:53.717Z,25.70
2023-05-09T04:30:27.047Z,21.27
2023-05-09T04:30:59.914Z,19.60
2023-05-09T04:31:31.883Z,19.55
2023-05-09T04:32:05.607Z,17.27
2023-05-09T04:32:38.747Z,16.95
2023-05-09T04:33:11.551Z,17.70
2023-05-09T04:33:43.350Z,17.17
2023-05-09T04:34:16.128Z,17.90
2023-05-09T04:34:47.946Z,17.73
2023-05-09T04:35:20.871Z,18.02
2023-05-09T04:35:53.366Z,18.27
2023-05-09T04:36:27.510Z,17.48
2023-05-09T04:36:59.323Z,16.02
2023-05-09T04:37:32.552Z,18.15
2023-05-09T04:38:05.715Z,17.00
2023-05-09T04:38:37.523Z,16.63
2023-05-09T04:39:10.442Z,17.05
2023-05-09T04:39:43.344Z,16.95
2023-05-09T04:40:15.142Z,18.00
2023-05-09T04:40:47.327Z,17.50
2023-05-09T04:41:20.091Z,17.90
2023-05-09T04:41:52.460Z,17.85
2023-05-09T04:42:24.290Z,20.20
2023-05-09T04:42:58.835Z,18.17
2023-05-09T04:43:31.154Z,16.70
2023-05-09T04:44:03.329Z,17.48
2023-05-09T04:44:36.243Z,22.25
2023-05-09T04:45:09.290Z,20.80
2023-05-09T04:45:41.368Z,18.08
2023-05-09T04:46:14.118Z,20.92
2023-05-09T04:46:46.268Z,20.83
2023-05-09T04:47:19.469Z,21.20
2023-05-09T04:47:52.306Z,18.80
2023-05-09T04:48:24.121Z,17.95
2023-05-09T04:48:56.129Z,17.00
2023-05-09T04:49:28.891Z,16.77
2023-05-09T04:50:00.899Z,17.42
2023-05-09T04:50:32.748Z,18.23
2023-05-09T04:51:05.633Z,16.98
2023-05-09T04:51:37.445Z,16.02
2023-05-09T04:52:09.243Z,17.45
2023-05-09T04:52:41.198Z,15.57
2023-05-09T04:53:13.957Z,15.10
2023-05-09T04:53:45.838Z,16.90
2023-05-09T04:54:17.667Z,16.33
2023-05-09T04:54:50.883Z,18.15
2023-05-09T04:55:22.674Z,17.15
2023-05-09T04:55:56.317Z,18.00
2023-05-09T04:56:29.053Z,16.77
2023-05-09T04:57:13.771Z,16.35
2023-05-09T04:57:49.757Z,15.70
2023-05-09T04:58:21.577Z,17.25
2023-05-09T04:58:53.661Z,15.10
2023-05-09T04:59:26.480Z,17.05
2023-05-09T04:59:58.312Z,17.15
2023-05-09T05:00:30.213Z,16.67
2023-05-09T05:01:02.012Z,16.30
2023-05-09T05:01:34.806Z,15.48
2023-05-09T05:02:06.769Z,16.33
2023-05-09T05:02:39.938Z,16.40
2023-05-09T05:03:12.760Z,15.13
2023-05-09T05:03:45.923Z,17.13
2023-05-09T05:04:17.751Z,15.88
2023-05-09T05:04:50.614Z,15.75
2023-05-09T05:05:25.474Z,15.55
2023-05-09T05:05:57.601Z,15.95
2023-05-09T05:06:31.663Z,16.92
2023-05-09T05:07:03.521Z,16.15
2023-05-09T05:07:35.378Z,16.08
2023-05-09T05:08:08.120Z,15.80
2023-05-09T05:08:39.985Z,15.35
2023-05-09T05:09:11.760Z,15.82
2023-05-09T05:09:44.516Z,15.55
2023-05-09T05:10:16.393Z,15.23
2023-05-09T05:10:49.491Z,15.13
2023-05-09T05:11:22.218Z,14.85
2023-05-09T05:12:00.797Z,14.80
2023-05-09T05:12:34.429Z,15.52
2023-05-09T05:13:07.318Z,14.82
2023-05-09T05:13:39.149Z,14.63
2023-05-09T05:14:12.012Z,15.40
2023-05-09T05:14:43.817Z,15.68
2023-05-09T05:15:19.234Z,31.55
2023-05-09T05:15:51.733Z,26.95
2023-05-09T05:16:23.644Z,21.15
2023-05-09T05:16:56.404Z,18.83
2023-05-09T05:17:29.434Z,18.65
2023-05-09T05:18:02.714Z,17.80
2023-05-09T05:18:35.556Z,16.65
2023-05-09T05:19:07.370Z,15.48
2023-05-09T05:19:39.167Z,15.20
2023-05-09T05:20:12.397Z,15.05
2023-05-09T05:20:44.440Z,15.07
2023-05-09T05:21:16.267Z,15.55
2023-05-09T05:21:49.088Z,13.95
2023-05-09T05:22:20.917Z,16.10
2023-05-09T05:22:54.413Z,14.50
2023-05-09T05:23:27.264Z,15.10
2023-05-09T05:23:59.055Z,15.32
2023-05-09T05:24:30.911Z,14.10
2023-05-09T05:25:05.007Z,14.18
2023-05-09T05:25:36.824Z,16.05
2023-05-09T05:26:08.657Z,17.83
2023-05-09T05:26:41.430Z,15.50
2023-05-09T05:27:14.217Z,13.35
2023-05-09T05:27:45.978Z,14.80
2023-05-09T05:28:18.695Z,14.75
2023-05-09T05:28:55.221Z,14.95
2023-05-09T05:29:27.002Z,15.38
2023-05-09T05:29:59.905Z,14.23
2023-05-09T05:30:34.054Z,16.35
2023-05-09T05:31:06.235Z,15.02
2023-05-09T05:31:39.051Z,14.10
2023-05-09T05:32:11.181Z,16.13
2023-05-09T05:32:44.060Z,14.57
2023-05-09T05:33:17.277Z,15.82
2023-05-09T05:33:49.117Z,15.30
2023-05-09T05:34:21.947Z,14.35
2023-05-09T05:34:53.753Z,16.92
2023-05-09T05:35:27.040Z,15.68
2023-05-09T05:35:59.818Z,21.58
2023-05-09T05:36:32.028Z,21.63
2023-05-09T05:37:03.856Z,19.65
2023-05-09T05:37:36.651Z,17.08
2023-05-09T05:38:08.534Z,16.27
2023-05-09T05:38:40.401Z,15.43
2023-05-09T05:39:13.141Z,14.20
2023-05-09T05:39:45.003Z,14.93
2023-05-09T05:40:16.913Z,14.63
2023-05-09T05:40:49.738Z,14.57
2023-05-09T05:41:22.328Z,15.45
2023-05-09T05:41:54.182Z,16.67
2023-05-09T05:42:27.011Z,14.98
2023-05-09T05:42:58.857Z,14.80
2023-05-09T05:43:30.991Z,14.50
2023-05-09T05:44:02.846Z,15.23
2023-05-09T05:44:35.663Z,14.95
2023-05-09T05:45:08.784Z,13.60
2023-05-09T05:45:40.706Z,13.57
2023-05-09T05:46:13.554Z,15.90
2023-05-09T05:46:45.364Z,14.32
2023-05-09T05:47:17.160Z,15.68
2023-05-09T05:47:50.428Z,14.95
2023-05-09T05:48:24.113Z,16.08
2023-05-09T05:48:56.595Z,14.98
2023-05-09T05:49:29.371Z,15.70
2023-05-09T05:50:01.680Z,14.50
2023-05-09T05:50:34.050Z,15.13
2023-05-09T05:51:06.836Z,13.82
2023-05-09T05:51:38.602Z,14.90
2023-05-09T05:52:10.420Z,15.05
2023-05-09T05:52:43.233Z,15.60
2023-05-09T05:53:15.033Z,14.57
2023-05-09T05:53:48.122Z,16.05
2023-05-09T05:54:19.905Z,16.23
2023-05-09T05:54:52.093Z,14.77
2023-05-09T05:55:24.930Z,14.18
2023-05-09T05:55:56.729Z,13.43
2023-05-09T05:56:29.490Z,15.30
2023-05-09T05:57:01.297Z,14.93
2023-05-09T05:57:34.410Z,14.38
2023-05-09T05:58:07.149Z,15.07
2023-05-09T05:58:38.927Z,14.52
2023-05-09T05:59:13.094Z,17.27
2023-05-09T05:59:48.619Z,14.88
2023-05-09T06:00:23.348Z,15.00
2023-05-09T06:00:55.243Z,15.30
2023-05-09T06:01:28.008Z,15.10
2023-05-09T06:02:00.174Z,15.57
2023-05-09T06:02:32.167Z,16.15
2023-05-09T06:03:05.403Z,14.75
2023-05-09T06:03:38.700Z,15.13
2023-05-09T06:04:10.674Z,15.18
2023-05-09T06:04:43.552Z,15.43
2023-05-09T06:05:15.532Z,14.45
2023-05-09T06:05:48.898Z,15.15
2023-05-09T06:06:21.768Z,14.07
2023-05-09T06:06:53.558Z,15.32
2023-05-09T06:07:26.633Z,15.18
2023-05-09T06:07:58.440Z,14.93
2023-05-09T06:08:30.755Z,14.75
2023-05-09T06:09:03.549Z,13.93
2023-05-09T06:09:35.623Z,14.98
2023-05-09T06:10:09.423Z,15.75
2023-05-09T06:10:41.599Z,15.82
2023-05-09T06:11:13.496Z,14.40
2023-05-09T06:11:46.274Z,15.18
2023-05-09T06:12:18.056Z,14.70
2023-05-09T06:12:50.863Z,17.67
2023-05-09T06:13:22.885Z,14.48
2023-05-09T06:13:54.739Z,16.70
2023-05-09T06:14:27.518Z,15.70
2023-05-09T06:14:59.334Z,15.52
2023-05-09T06:15:31.197Z,14.43
2023-05-09T06:16:18.697Z,15.05
2023-05-09T06:16:52.299Z,13.25
2023-05-09T06:17:25.238Z,15.57
2023-05-09T06:17:57.163Z,15.45
2023-05-09T06:18:30.469Z,15.95
2023-05-09T06:19:03.666Z,14.27
2023-05-09T06:19:35.471Z,14.77
2023-05-09T06:20:09.038Z,13.63
2023-05-09T06:20:40.835Z,13.98
2023-05-09T06:21:13.616Z,14.57
2023-05-09T06:21:45.615Z,15.40
2023-05-09T06:22:17.508Z,15.05
2023-05-09T06:22:50.291Z,15.63
2023-05-09T06:23:22.247Z,15.15
2023-05-09T06:24:35.663Z,14.15
2023-05-09T06:25:10.603Z,14.00
2023-05-09T06:25:42.599Z,13.57
2023-05-09T06:26:15.409Z,14.90
2023-05-09T06:26:47.304Z,13.38
2023-05-09T06:27:19.261Z,14.45
2023-05-09T06:27:52.063Z,14.35
2023-05-09T06:28:24.024Z,15.23
2023-05-09T06:28:56.024Z,14.70
2023-05-09T06:29:28.868Z,13.82
2023-05-09T06:30:02.690Z,16.90
2023-05-09T06:30:38.890Z,14.13
2023-05-09T06:31:10.873Z,14.05
2023-05-09T06:31:42.790Z,15.25
2023-05-09T06:32:18.382Z,13.90
2023-05-09T06:32:50.162Z,13.50
2023-05-09T06:33:23.158Z,14.95
2023-05-09T06:33:54.960Z,14.75
2023-05-09T06:34:29.142Z,15.50
2023-05-09T06:35:00.995Z,14.32
2023-05-09T06:35:32.802Z,14.05
2023-05-09T06:36:06.242Z,13.85
2023-05-09T06:36:38.046Z,14.18
2023-05-09T06:37:09.959Z,13.98
2023-05-09T06:37:42.728Z,13.77
2023-05-09T06:38:14.536Z,13.88
2023-05-09T06:38:46.379Z,14.63
2023-05-09T06:39:19.188Z,14.52
2023-05-09T06:39:51.243Z,14.43
2023-05-09T06:40:23.040Z,15.55
2023-05-09T06:40:55.921Z,17.08
2023-05-09T06:41:27.771Z,14.63
2023-05-09T06:41:59.581Z,15.90
2023-05-09T06:42:33.591Z,15.38
2023-05-09T06:43:05.433Z,14.55
2023-05-09T06:43:37.210Z,13.63
2023-05-09T06:44:09.990Z,14.18
2023-05-09T06:44:43.606Z,15.07
2023-05-09T06:45:15.989Z,14.27
2023-05-09T06:45:49.102Z,14.32
2023-05-09T06:46:20.989Z,16.70
2023-05-09T06:46:52.888Z,19.33
2023-05-09T06:47:25.851Z,21.70
2023-05-09T06:47:57.751Z,41.95
2023-05-09T06:48:30.730Z,31.77
2023-05-09T06:49:02.576Z,25.20
2023-05-09T06:49:36.783Z,19.92
2023-05-09T06:50:09.449Z,17.25
2023-05-09T06:50:41.217Z,17.13
2023-05-09T06:51:13.979Z,15.45
2023-05-09T06:51:45.787Z,15.35
2023-05-09T06:52:17.533Z,18.55
2023-05-09T06:52:50.406Z,13.50
2023-05-09T06:53:22.459Z,15.05
2023-05-09T06:53:55.257Z,16.20
2023-05-09T06:54:27.144Z,14.50
2023-05-09T06:54:59.029Z,14.52
2023-05-09T06:55:32.025Z,14.73
2023-05-09T06:56:04.382Z,15.48
2023-05-09T06:56:36.854Z,13.95
2023-05-09T06:57:09.887Z,14.10
2023-05-09T06:57:41.966Z,13.75
2023-05-09T06:58:14.017Z,15.57
2023-05-09T06:58:46.888Z,14.48
2023-05-09T06:59:19.012Z,15.75
2023-05-09T06:59:50.883Z,16.25
2023-05-09T07:00:24.135Z,18.48
2023-05-09T07:00:56.016Z,14.73
2023-05-09T07:01:27.984Z,15.80
2023-05-09T07:02:01.089Z,14.55
2023-05-09T07:02:33.093Z,14.68
2023-05-09T07:03:07.293Z,14.88
2023-05-09T07:03:40.092Z,14.98
2023-05-09T07:04:11.882Z,15.25
2023-05-09T07:04:45.115Z,15.48
2023-05-09T07:05:18.059Z,16.60
2023-05-09T07:05:50.171Z,15.63
2023-05-09T07:06:22.923Z,15.50
2023-05-09T07:06:54.712Z,16.92
2023-05-09T07:07:27.680Z,17.13
2023-05-09T07:07:59.513Z,18.73
2023-05-09T07:08:32.354Z,24.08
2023-05-09T07:09:04.277Z,19.27
2023-05-09T07:09:37.155Z,17.73